Mvricosiete — 9GDN — position and weather

sailwx.info

Track history (hours):
 
Tides and Currents Weather Stations Pressure Air Temp Water Temp Dewpoint Dewpoint Depression Visibility Wind Speed Wind Dir Waves Ship Positions

Mvricosiete

Last reported at 2017-Sep-18 11:06 UTC. Time now 2017-Sep-22 02:49 UTC.
Position N 05°27' E 000°20'.

Type: Fishing. MMSI: 627762000.

Date/timePositionNaut miles runAvg speedWind from/ knotsBaromVisibWave heightAir tempDewpointWater temp
2017-Sep-18 11:06N 05°27' E 000°20'0 2.2
2017-Sep-18 10:56N 05°28' E 000°20'3 6.0
2017-Sep-18 10:30N 05°29' E 000°18'5 9.9
2017-Sep-18 10:00N 05°33' E 000°15'510.0
2017-Sep-18 09:30N 05°36' E 000°11'4 7.6
2017-Sep-18 09:00N 05°38' E 000°08'1 1.3
2017-Sep-18 08:30N 05°39' E 000°07'1 1.1
2017-Sep-18 08:00N 05°39' E 000°08'1 1.1
2017-Sep-18 07:30N 05°39' E 000°08'0 0.4
2017-Sep-18 07:00N 05°39' E 000°08'1 1.6
2017-Sep-18 06:30N 05°39' E 000°07'0 0.5
2017-Sep-18 06:00N 05°39' E 000°07'0 0.4
2017-Sep-18 05:30N 05°39' E 000°07'0 0.4
2017-Sep-18 05:00N 05°39' E 000°07'0 0.0
2017-Sep-18 04:30N 05°39' E 000°07'0 0.0
2017-Sep-18 04:00N 05°39' E 000°07'0 0.0
2017-Sep-18 03:30N 05°39' E 000°07'0 0.0
2017-Sep-18 03:00N 05°39' E 000°07'0 0.0
2017-Sep-18 02:30N 05°39' E 000°07'0 0.0
2017-Sep-18 02:00N 05°39' E 000°07'0 0.0
2017-Sep-18 01:30N 05°39' E 000°07'0 0.0
2017-Sep-18 01:00N 05°39' E 000°07'0 0.0
2017-Sep-18 00:30N 05°39' E 000°07'0 0.0
2017-Sep-18 00:00N 05°39' E 000°07'0 0.0
2017-Sep-17 23:30N 05°39' E 000°07'0 0.0
2017-Sep-17 23:00N 05°39' E 000°07'0 0.0
2017-Sep-17 22:30N 05°39' E 000°07'0 0.0
2017-Sep-17 22:00N 05°39' E 000°07'0 0.0
2017-Sep-17 21:30N 05°39' E 000°07'0 0.0
2017-Sep-17 21:00N 05°39' E 000°07'0 0.0
2017-Sep-17 20:30N 05°39' E 000°07'0 0.0
2017-Sep-17 20:00N 05°39' E 000°07'0 0.0
2017-Sep-17 19:30N 05°39' E 000°07'0 0.0
2017-Sep-17 19:00N 05°39' E 000°07'0 0.0
2017-Sep-17 18:30N 05°39' E 000°07'0 0.0
2017-Sep-17 18:00N 05°39' E 000°07'0 0.0
2017-Sep-17 17:30N 05°39' E 000°07'0 0.0
2017-Sep-17 17:00N 05°39' E 000°07'0 0.0
2017-Sep-17 16:30N 05°39' E 000°07'0 0.0
2017-Sep-17 16:00N 05°39' E 000°07'0 0.0
2017-Sep-17 15:30N 05°39' E 000°07'0 0.0
2017-Sep-17 15:00N 05°39' E 000°07'0 0.0
2017-Sep-17 14:30N 05°39' E 000°07'6 1.9
2017-Sep-17 11:19N 05°38' E 000°01'0 0.0
2017-Sep-17 11:00N 05°38' E 000°01'0 0.0
2017-Sep-17 10:30N 05°38' E 000°01'0 0.0
2017-Sep-17 10:00N 05°38' E 000°01'0 0.1
2017-Sep-17 09:30N 05°38' E 000°01'0 0.0
2017-Sep-16 18:28N 05°38' E 000°01'  
2017-Sep-13 07:54N 05°38' E 000°02'3 7.8
2017-Sep-13 07:30N 05°35' E 000°03'3 5.5
2017-Sep-13 07:00N 05°32' E 000°02'2 3.1
2017-Sep-13 06:30N 05°31' E 000°01'5 9.7
2017-Sep-13 06:00N 05°26' W 000°01'15 0.3
2017-Sep-11 09:27N 05°23' E 000°14'3 6.4
2017-Sep-11 08:59N 05°26' E 000°13'3 6.3
2017-Sep-11 08:30N 05°29' E 000°12'3 6.3
2017-Sep-11 08:00N 05°32' E 000°11'3 6.3
2017-Sep-11 07:30N 05°35' E 000°10'3 6.4
2017-Sep-11 07:00N 05°38' E 000°09'2 4.0
2017-Sep-11 06:30N 05°40' E 000°09'1 1.4
2017-Sep-11 06:00N 05°40' E 000°08'1 1.6
2017-Sep-11 05:30N 05°39' E 000°07'1 2.5
2017-Sep-11 05:00N 05°40' E 000°09'0 0.5
2017-Sep-11 04:30N 05°40' E 000°09'0 0.0
2017-Sep-11 04:00N 05°40' E 000°09'0 0.0
2017-Sep-11 03:30N 05°40' E 000°09'0 0.0
2017-Sep-11 03:00N 05°40' E 000°09'0 0.0
2017-Sep-11 02:30N 05°40' E 000°09'0 0.0
2017-Sep-11 02:00N 05°40' E 000°09'0 0.0
2017-Sep-11 01:30N 05°40' E 000°09'0 0.0
2017-Sep-11 01:00N 05°40' E 000°09'0 0.0
2017-Sep-11 00:30N 05°40' E 000°09'0 0.0
2017-Sep-11 00:00N 05°40' E 000°09'0 0.0
2017-Sep-10 23:30N 05°40' E 000°09'2 3.0
2017-Sep-10 22:59N 05°39' E 000°10'4 8.8
2017-Sep-10 22:30N 05°35' E 000°12'4 8.9
2017-Sep-10 22:00N 05°31' E 000°15'13 0.4
2017-Sep-09 10:16N 05°19' E 000°11'2 3.3
2017-Sep-09 09:48N 05°20' E 000°09'1 3.7
2017-Sep-09 09:24N 05°21' E 000°10'3 5.9
2017-Sep-09 08:50N 05°25' E 000°10'3 8.9
2017-Sep-09 08:30N 05°27' E 000°10'4 8.7
2017-Sep-09 08:00N 05°32' E 000°09'4 7.5
2017-Sep-09 07:30N 05°35' E 000°08'3 6.4
2017-Sep-09 07:00N 05°38' E 000°06'1 2.1
2017-Sep-09 06:30N 05°39' E 000°06'1 1.2
2017-Sep-09 06:00N 05°39' E 000°06'1 2.9
2017-Sep-09 05:30N 05°40' E 000°08'1 2.6
2017-Sep-09 05:00N 05°40' E 000°09'0 0.0
2017-Sep-09 04:30N 05°40' E 000°09'0 0.0
2017-Sep-09 04:00N 05°40' E 000°09'0 0.0
2017-Sep-09 03:30N 05°40' E 000°09'0 0.0
2017-Sep-09 03:00N 05°40' E 000°09'0 0.0
2017-Sep-09 02:30N 05°40' E 000°09'0 0.0
2017-Sep-09 02:00N 05°40' E 000°09'0 0.0
2017-Sep-09 01:30N 05°40' E 000°09'2 3.2
2017-Sep-09 01:00N 05°38' E 000°09'510.7
2017-Sep-09 00:30N 05°34' E 000°06'510.1
2017-Sep-09 00:00N 05°30' E 000°02'4 7.2
2017-Sep-08 23:30N 05°27' E 000°00'510.2
2017-Sep-08 23:00N 05°22' E 000°01'7 4.5
2017-Sep-08 21:29N 05°19' E 000°07'  
Track history (hours):
 
Tides and Currents Weather Stations Pressure Air Temp Water Temp Dewpoint Dewpoint Depression Visibility Wind Speed Wind Dir Waves Ship Positions

Mvricosiete

Last reported at 2017-Sep-18 11:06 UTC. Time now 2017-Sep-22 02:49 UTC.
Position N 05°27' E 000°20'.

Type: Fishing. MMSI: 627762000.

Date/timePositionNaut miles runAvg speedWind from/ knotsBaromVisibWave heightAir tempDewpointWater temp
2017-Sep-18 11:06N 05°27' E 000°20'0 2.2
2017-Sep-18 10:56N 05°28' E 000°20'3 6.0
2017-Sep-18 10:30N 05°29' E 000°18'5 9.9
2017-Sep-18 10:00N 05°33' E 000°15'510.0
2017-Sep-18 09:30N 05°36' E 000°11'4 7.6
2017-Sep-18 09:00N 05°38' E 000°08'1 1.3
2017-Sep-18 08:30N 05°39' E 000°07'1 1.1
2017-Sep-18 08:00N 05°39' E 000°08'1 1.1
2017-Sep-18 07:30N 05°39' E 000°08'0 0.4
2017-Sep-18 07:00N 05°39' E 000°08'1 1.6
2017-Sep-18 06:30N 05°39' E 000°07'0 0.5
2017-Sep-18 06:00N 05°39' E 000°07'0 0.4
2017-Sep-18 05:30N 05°39' E 000°07'0 0.4
2017-Sep-18 05:00N 05°39' E 000°07'0 0.0
2017-Sep-18 04:30N 05°39' E 000°07'0 0.0
2017-Sep-18 04:00N 05°39' E 000°07'0 0.0
2017-Sep-18 03:30N 05°39' E 000°07'0 0.0
2017-Sep-18 03:00N 05°39' E 000°07'0 0.0
2017-Sep-18 02:30N 05°39' E 000°07'0 0.0
2017-Sep-18 02:00N 05°39' E 000°07'0 0.0
2017-Sep-18 01:30N 05°39' E 000°07'0 0.0
2017-Sep-18 01:00N 05°39' E 000°07'0 0.0
2017-Sep-18 00:30N 05°39' E 000°07'0 0.0
2017-Sep-18 00:00N 05°39' E 000°07'0 0.0
2017-Sep-17 23:30N 05°39' E 000°07'0 0.0
2017-Sep-17 23:00N 05°39' E 000°07'0 0.0
2017-Sep-17 22:30N 05°39' E 000°07'0 0.0
2017-Sep-17 22:00N 05°39' E 000°07'0 0.0
2017-Sep-17 21:30N 05°39' E 000°07'0 0.0
2017-Sep-17 21:00N 05°39' E 000°07'0 0.0
2017-Sep-17 20:30N 05°39' E 000°07'0 0.0
2017-Sep-17 20:00N 05°39' E 000°07'0 0.0
2017-Sep-17 19:30N 05°39' E 000°07'0 0.0
2017-Sep-17 19:00N 05°39' E 000°07'0 0.0
2017-Sep-17 18:30N 05°39' E 000°07'0 0.0
2017-Sep-17 18:00N 05°39' E 000°07'0 0.0
2017-Sep-17 17:30N 05°39' E 000°07'0 0.0
2017-Sep-17 17:00N 05°39' E 000°07'0 0.0
2017-Sep-17 16:30N 05°39' E 000°07'0 0.0
2017-Sep-17 16:00N 05°39' E 000°07'0 0.0
2017-Sep-17 15:30N 05°39' E 000°07'0 0.0
2017-Sep-17 15:00N 05°39' E 000°07'0 0.0
2017-Sep-17 14:30N 05°39' E 000°07'6 1.9
2017-Sep-17 11:19N 05°38' E 000°01'0 0.0
2017-Sep-17 11:00N 05°38' E 000°01'0 0.0
2017-Sep-17 10:30N 05°38' E 000°01'0 0.0
2017-Sep-17 10:00N 05°38' E 000°01'0 0.1
2017-Sep-17 09:30N 05°38' E 000°01'0 0.0
2017-Sep-16 18:28N 05°38' E 000°01'  
2017-Sep-13 07:54N 05°38' E 000°02'3 7.8
2017-Sep-13 07:30N 05°35' E 000°03'3 5.5
2017-Sep-13 07:00N 05°32' E 000°02'2 3.1
2017-Sep-13 06:30N 05°31' E 000°01'5 9.7
2017-Sep-13 06:00N 05°26' W 000°01'15 0.3
2017-Sep-11 09:27N 05°23' E 000°14'3 6.4
2017-Sep-11 08:59N 05°26' E 000°13'3 6.3
2017-Sep-11 08:30N 05°29' E 000°12'3 6.3
2017-Sep-11 08:00N 05°32' E 000°11'3 6.3
2017-Sep-11 07:30N 05°35' E 000°10'3 6.4
2017-Sep-11 07:00N 05°38' E 000°09'2 4.0
2017-Sep-11 06:30N 05°40' E 000°09'1 1.4
2017-Sep-11 06:00N 05°40' E 000°08'1 1.6
2017-Sep-11 05:30N 05°39' E 000°07'1 2.5
2017-Sep-11 05:00N 05°40' E 000°09'0 0.5
2017-Sep-11 04:30N 05°40' E 000°09'0 0.0
2017-Sep-11 04:00N 05°40' E 000°09'0 0.0
2017-Sep-11 03:30N 05°40' E 000°09'0 0.0
2017-Sep-11 03:00N 05°40' E 000°09'0 0.0
2017-Sep-11 02:30N 05°40' E 000°09'0 0.0
2017-Sep-11 02:00N 05°40' E 000°09'0 0.0
2017-Sep-11 01:30N 05°40' E 000°09'0 0.0
2017-Sep-11 01:00N 05°40' E 000°09'0 0.0
2017-Sep-11 00:30N 05°40' E 000°09'0 0.0
2017-Sep-11 00:00N 05°40' E 000°09'0 0.0
2017-Sep-10 23:30N 05°40' E 000°09'2 3.0
2017-Sep-10 22:59N 05°39' E 000°10'4 8.8
2017-Sep-10 22:30N 05°35' E 000°12'4 8.9
2017-Sep-10 22:00N 05°31' E 000°15'13 0.4
2017-Sep-09 10:16N 05°19' E 000°11'2 3.3
2017-Sep-09 09:48N 05°20' E 000°09'1 3.7
2017-Sep-09 09:24N 05°21' E 000°10'3 5.9
2017-Sep-09 08:50N 05°25' E 000°10'3 8.9
2017-Sep-09 08:30N 05°27' E 000°10'4 8.7
2017-Sep-09 08:00N 05°32' E 000°09'4 7.5
2017-Sep-09 07:30N 05°35' E 000°08'3 6.4
2017-Sep-09 07:00N 05°38' E 000°06'1 2.1
2017-Sep-09 06:30N 05°39' E 000°06'1 1.2
2017-Sep-09 06:00N 05°39' E 000°06'1 2.9
2017-Sep-09 05:30N 05°40' E 000°08'1 2.6
2017-Sep-09 05:00N 05°40' E 000°09'0 0.0
2017-Sep-09 04:30N 05°40' E 000°09'0 0.0
2017-Sep-09 04:00N 05°40' E 000°09'0 0.0
2017-Sep-09 03:30N 05°40' E 000°09'0 0.0
2017-Sep-09 03:00N 05°40' E 000°09'0 0.0
2017-Sep-09 02:30N 05°40' E 000°09'0 0.0
2017-Sep-09 02:00N 05°40' E 000°09'0 0.0
2017-Sep-09 01:30N 05°40' E 000°09'2 3.2
2017-Sep-09 01:00N 05°38' E 000°09'510.7
2017-Sep-09 00:30N 05°34' E 000°06'510.1
2017-Sep-09 00:00N 05°30' E 000°02'4 7.2
2017-Sep-08 23:30N 05°27' E 000°00'510.2
2017-Sep-08 23:00N 05°22' E 000°01'7 4.5
2017-Sep-08 21:29N 05°19' E 000°07'  

Dump ship's entire track history